Rooma, Italia

31. elokuuta 2015 klo 21:45 (CEST) (GMT +0200)
Ciampino | | Change Station
CLOSE
Current Station
Omat sääasemat
Location: Ciampino, LAZIO
Korkeus: 348 ft
Lähimmät sääasemat

Kork 348 ft 41.81 °N, 12.60 °E | Updated 1 minute ago

Clear
Selkeää
82.9 °F
Tuntuu kuin 82 °F
N
1.6
Tuuli Suunnaltaan vaihteleva Tuuli ilmansuunnasta Kaakko
Gusts 2.2 mph

Tänään
Korkea -- | Matala -- °F
--% Sateen mahd.
Eilen
Korkea -- | Matala -- °F
Precip. -- tuumaa
6:34 AM 7:45 PM
Vähenevä kupera kuu, 94% visible
Ilmanpaine 30.01 tuumaa
Näkyvyys -9999.0 mailia
Pilviä
Lämpötilaindeksi 82 °F
Kastepiste 55 °F
Ilmankosteus 39%
Sademäärä 0.00 tuumaa
Lumensyvyys Ei saatavilla
UV 0.0 / 12
Pollen Ei saatavilla
Ilmanlaatu Ei saatavilla
Flu Activity Ei saatavilla
METAR LIRA 311920Z 13004KT CAVOK 27/13 Q1016
Ilmanpaine 30.01 tuumaa
Näkyvyys -9999.0 mailia
Pilviä
Lämpötilaindeksi 82 °F
Kastepiste 55 °F
Ilmankosteus 39%
Sademäärä 0.00 tuumaa
Lumensyvyys Ei saatavilla
UV 0.0 / 12
Pollen Ei saatavilla
Ilmanlaatu Ei saatavilla
Flu Activity Ei saatavilla
METAR LIRA 311920Z 13004KT CAVOK 27/13 Q1016

10-Day Weather Forecast

×

Almanac

Tähtitiede

Aug. 31, 2015 Nousuaika Laskuaika
Valoisa aika
Porvarillinen hämärä
Nauttinen hämärä
Astronominen hämärä
Kuu
Näkyvän valon pituus
Päivän pituus
Tomorrow will be .
, % of the Moon is Illuminated

Tämän päivän ennätykset

Country Highs Country Lows

Community

WunderPhotos

Upload Photos

1,851,346 photos uploaded!

WunderBlogs® & News

Nearby

Ilmanlaatu

  Ilmanlaatu AQ Index Pollutant
Not available.

Lumensyvyys

Station Depth Korkeus

Maanjäristysaktiivisuus

Paikkakunta Distance Mag. Time & Date
Minimum magnitude displayed is 2.5.

Coastal Water Temperatures

Paikka Lämpötila

Stations

Lähimmät sääasemat

Aseman sijainti Lämpötila Tuulen hyytävyys Kastepiste Ilmankosteus Tuuli Precip. Kork Päivitetty Tyyppi